Time;durP1;ratioP1;P1;durP2;ratioP2;P2;SDS_P1;SDS_P2;PMS_P1;PMS_P2;Temp;Humidity;BMP_temperature;BMP_pressure;BME280_temperature;BME280_humidity;BME280_pressure;Samples;Min_cycle;Max_cycle;Signal;HPM_P1;HPM_P2
2023/07/18 00:00:59;;;;;;;3.07;2.77;;;26.60;41.90;;;;;;5075606;28;20227;-51
2023/07/18 00:03:25;;;;;;;4.23;3.10;;;26.60;41.60;;;;;;5075098;28;20507;-49
2023/07/18 00:05:51;;;;;;;3.40;2.40;;;26.60;41.80;;;;;;5079585;28;20195;-48
2023/07/18 00:08:16;;;;;;;2.80;2.50;;;26.60;41.70;;;;;;5081051;28;20256;-48
2023/07/18 00:10:42;;;;;;;3.17;2.87;;;26.60;41.90;;;;;;5072907;28;20438;-50
2023/07/18 00:13:08;;;;;;;3.10;2.70;;;26.60;42.10;;;;;;5060730;28;20772;-49
2023/07/18 00:15:34;;;;;;;3.57;2.40;;;26.60;41.70;;;;;;5076296;28;20203;-50
2023/07/18 00:18:01;;;;;;;3.33;3.03;;;26.60;41.90;;;;;;5067997;28;20442;-50
2023/07/18 00:20:27;;;;;;;6.10;2.57;;;26.60;42.00;;;;;;5063014;28;20390;-48
2023/07/18 00:22:53;;;;;;;3.33;2.60;;;26.60;41.70;;;;;;5076248;28;20536;-49
2023/07/18 00:25:20;;;;;;;4.30;2.80;;;26.60;41.30;;;;;;5073096;28;20249;-50
2023/07/18 00:27:47;;;;;;;5.63;2.67;;;26.60;41.10;;;;;;5066466;28;20203;-49
2023/07/18 00:30:13;;;;;;;3.50;3.20;;;26.50;41.20;;;;;;5069941;28;20440;-48
2023/07/18 00:32:42;;;;;;;5.70;2.80;;;26.40;41.40;;;;;;5077604;28;20524;-51
2023/07/18 00:35:08;;;;;;;4.53;2.90;;;26.20;42.00;;;;;;5059925;28;20437;-52
2023/07/18 00:37:34;;;;;;;3.73;2.43;;;26.20;42.60;;;;;;5074774;28;20820;-49
2023/07/18 00:39:59;;;;;;;5.90;2.97;;;26.20;42.60;;;;;;5076854;28;20451;-48
2023/07/18 00:42:25;;;;;;;2.53;2.33;;;26.20;42.60;;;;;;5070275;28;20597;-51
2023/07/18 00:44:51;;;;;;;2.50;2.30;;;26.20;42.40;;;;;;5069698;28;20199;-51
2023/07/18 00:47:17;;;;;;;2.80;2.27;;;26.20;42.50;;;;;;5064438;28;20203;-48
2023/07/18 00:49:44;;;;;;;3.87;2.60;;;26.30;42.80;;;;;;5080381;28;20974;-49
2023/07/18 00:52:10;;;;;;;3.37;2.93;;;26.30;42.50;;;;;;5086277;28;20932;-53
2023/07/18 00:54:36;;;;;;;4.10;2.50;;;26.30;42.30;;;;;;5070650;28;20450;-48
2023/07/18 00:57:02;;;;;;;3.63;2.90;;;26.20;42.60;;;;;;5081394;28;20445;-49
2023/07/18 00:59:29;;;;;;;3.97;3.13;;;26.20;42.80;;;;;;5076706;28;20263;-50
2023/07/18 01:01:56;;;;;;;3.53;2.90;;;26.20;42.60;;;;;;5075243;28;20584;-52
2023/07/18 01:04:21;;;;;;;3.40;2.60;;;26.30;42.60;;;;;;5079723;28;20446;-52
2023/07/18 01:06:48;;;;;;;3.70;2.70;;;26.30;42.80;;;;;;5069279;28;20553;-51
2023/07/18 01:09:14;;;;;;;6.20;2.53;;;26.20;42.90;;;;;;5073089;28;20192;-51
2023/07/18 01:11:39;;;;;;;3.57;2.50;;;26.20;42.80;;;;;;5081377;28;20521;-52
2023/07/18 01:14:05;;;;;;;3.97;3.27;;;26.20;43.00;;;;;;5079456;28;20228;-52
2023/07/18 01:16:31;;;;;;;4.77;3.10;;;26.20;43.00;;;;;;5068237;28;20192;-49
2023/07/18 01:18:57;;;;;;;6.90;2.80;;;26.20;42.80;;;;;;5077309;28;20512;-48
2023/07/18 01:21:23;;;;;;;5.27;3.50;;;26.10;42.90;;;;;;5067327;28;20263;-49
2023/07/18 01:23:48;;;;;;;3.07;2.53;;;26.10;42.80;;;;;;5077380;28;20256;-49
2023/07/18 01:26:14;;;;;;;5.23;3.27;;;26.10;43.20;;;;;;5069292;28;20199;-52
2023/07/18 01:28:40;;;;;;;4.10;3.00;;;26.10;43.00;;;;;;5075040;28;20253;-48
2023/07/18 01:31:06;;;;;;;3.57;2.67;;;26.10;42.80;;;;;;5076086;28;20204;-52
2023/07/18 01:33:33;;;;;;;3.83;3.10;;;26.10;43.30;;;;;;5074535;28;20433;-52
2023/07/18 01:35:58;;;;;;;3.53;2.70;;;26.10;43.30;;;;;;5077306;28;20196;-49
2023/07/18 01:38:29;;;;;;;4.90;3.20;;;26.00;43.00;;;;;;5065021;28;20970;-51
2023/07/18 01:41:03;;;;;;;4.30;3.00;;;26.00;43.00;;;;;;5063357;28;20228;-49
2023/07/18 01:43:29;;;;;;;3.37;2.53;;;25.90;43.40;;;;;;5072198;28;20437;-50
2023/07/18 01:45:59;;;;;;;3.50;3.03;;;25.80;43.70;;;;;;5072358;28;20441;-50
2023/07/18 01:48:25;;;;;;;3.50;3.20;;;25.70;43.60;;;;;;5069805;28;20291;-51
2023/07/18 01:50:50;;;;;;;6.20;3.07;;;25.70;43.60;;;;;;5078058;28;20529;-49
2023/07/18 01:53:16;;;;;;;3.23;2.93;;;25.70;44.10;;;;;;5064730;28;20197;-51
2023/07/18 01:55:41;;;;;;;5.40;3.57;;;25.70;43.80;;;;;;5066668;28;20564;-51
2023/07/18 01:58:07;;;;;;;3.30;3.00;;;25.70;43.80;;;;;;5070265;28;20192;-50
2023/07/18 02:00:35;;;;;;;3.93;3.07;;;25.70;43.90;;;;;;5071456;28;20218;-49
2023/07/18 02:03:01;;;;;;;4.27;2.77;;;25.70;43.90;;;;;;5077121;28;20219;-49
2023/07/18 02:05:28;;;;;;;5.33;3.07;;;25.70;44.00;;;;;;5077127;28;20438;-48
2023/07/18 02:07:55;;;;;;;4.93;3.30;;;25.60;44.00;;;;;;5074771;28;20450;-48
2023/07/18 02:10:21;;;;;;;3.30;3.00;;;25.60;44.70;;;;;;5075231;28;20445;-49
2023/07/18 02:12:48;;;;;;;5.93;3.27;;;25.60;43.90;;;;;;5073772;28;20477;-50
2023/07/18 02:15:14;;;;;;;3.70;2.97;;;25.60;43.90;;;;;;5070307;28;20529;-50
2023/07/18 02:17:40;;;;;;;3.20;2.90;;;25.60;44.00;;;;;;5066019;28;20524;-51
2023/07/18 02:20:08;;;;;;;2.83;2.53;;;25.50;43.80;;;;;;5055375;28;20192;-51
2023/07/18 02:22:34;;;;;;;3.57;3.27;;;25.40;44.20;;;;;;5069432;28;20446;-49
2023/07/18 02:25:00;;;;;;;3.60;2.90;;;25.40;44.40;;;;;;5069786;28;20430;-49
2023/07/18 02:27:25;;;;;;;3.90;2.77;;;25.40;44.40;;;;;;5069225;28;20196;-50
2023/07/18 02:29:51;;;;;;;3.50;2.90;;;25.40;44.30;;;;;;5073613;28;20203;-50
2023/07/18 02:32:17;;;;;;;4.17;3.10;;;25.40;44.40;;;;;;5065679;28;20187;-48
2023/07/18 02:34:43;;;;;;;2.83;2.63;;;25.30;44.40;;;;;;5071888;28;20285;-51
2023/07/18 02:37:09;;;;;;;3.57;3.20;;;25.30;44.50;;;;;;5081587;28;20585;-49
2023/07/18 02:39:36;;;;;;;7.80;3.70;;;25.20;44.90;;;;;;5070400;28;20434;-52
2023/07/18 02:42:02;;;;;;;3.77;3.00;;;24.90;45.50;;;;;;5082919;28;20230;-50
2023/07/18 02:44:28;;;;;;;4.07;3.23;;;24.90;45.60;;;;;;5074834;28;20489;-48
2023/07/18 02:46:53;;;;;;;4.70;3.03;;;25.00;45.80;;;;;;5078249;28;20503;-48
2023/07/18 02:49:19;;;;;;;6.40;3.20;;;25.10;45.40;;;;;;5085564;28;20191;-50
2023/07/18 02:51:44;;;;;;;4.13;3.37;;;25.10;45.10;;;;;;5080792;28;20254;-51
2023/07/18 02:54:10;;;;;;;4.27;3.30;;;25.20;45.10;;;;;;5073294;28;20206;-51
2023/07/18 02:56:36;;;;;;;5.53;3.40;;;25.20;45.00;;;;;;5079668;28;20198;-51
2023/07/18 02:59:01;;;;;;;4.97;3.70;;;25.20;44.70;;;;;;5071897;28;20659;-49
2023/07/18 03:01:27;;;;;;;4.30;2.80;;;25.10;44.70;;;;;;5074284;28;20748;-50
2023/07/18 03:03:54;;;;;;;4.30;3.23;;;25.00;45.40;;;;;;5063860;28;20664;-52
2023/07/18 03:06:19;;;;;;;5.27;4.13;;;24.90;45.40;;;;;;5072097;28;20674;-51
2023/07/18 03:08:45;;;;;;;11.70;5.20;;;24.70;46.10;;;;;;5070418;28;20438;-50
2023/07/18 03:11:11;;;;;;;8.20;4.10;;;24.70;45.80;;;;;;5078139;28;20274;-50
2023/07/18 03:13:36;;;;;;;4.90;4.17;;;24.70;45.30;;;;;;5083594;28;20293;-50
2023/07/18 03:16:04;;;;;;;7.13;4.50;;;24.70;45.80;;;;;;5077979;28;20290;-48
2023/07/18 03:18:30;;;;;;;4.20;3.63;;;24.70;46.10;;;;;;5072454;28;21245;-50
2023/07/18 03:20:56;;;;;;;3.80;3.00;;;24.70;45.80;;;;;;5071574;28;20608;-49
2023/07/18 03:23:22;;;;;;;5.10;3.40;;;24.70;45.90;;;;;;5070001;28;20873;-48
2023/07/18 03:25:48;;;;;;;3.70;3.07;;;24.70;46.70;;;;;;5067030;28;20194;-50
2023/07/18 03:28:14;;;;;;;3.57;2.90;;;24.70;46.30;;;;;;5065148;28;20258;-50
2023/07/18 03:30:40;;;;;;;5.27;3.07;;;24.70;46.10;;;;;;5064691;28;20799;-48
2023/07/18 03:33:06;;;;;;;3.87;3.27;;;24.80;45.80;;;;;;5066963;28;20529;-50
2023/07/18 03:35:32;;;;;;;3.57;3.07;;;24.80;45.50;;;;;;5068670;28;20567;-50
2023/07/18 03:37:58;;;;;;;3.27;2.87;;;24.80;45.30;;;;;;5064644;28;20973;-52
2023/07/18 03:40:24;;;;;;;3.20;2.90;;;24.80;45.30;;;;;;5057577;28;20470;-49
2023/07/18 03:42:49;;;;;;;5.63;3.07;;;24.80;45.70;;;;;;5078469;28;20597;-52
2023/07/18 03:45:16;;;;;;;3.67;3.17;;;24.80;45.60;;;;;;5072351;28;20593;-52
2023/07/18 03:47:42;;;;;;;3.60;3.10;;;24.80;45.60;;;;;;5081008;28;20561;-50
2023/07/18 03:50:11;;;;;;;3.73;3.00;;;24.80;45.60;;;;;;5065026;28;20533;-51
2023/07/18 03:52:37;;;;;;;3.07;2.50;;;24.70;45.60;;;;;;5060032;28;20460;-49
2023/07/18 03:55:04;;;;;;;4.17;3.53;;;24.80;45.40;;;;;;5056954;28;20944;-51
2023/07/18 03:57:31;;;;;;;4.17;2.93;;;24.30;46.20;;;;;;5060741;28;20192;-51
2023/07/18 03:59:57;;;;;;;3.40;3.00;;;24.20;47.00;;;;;;5073295;28;20469;-54
2023/07/18 04:02:22;;;;;;;5.03;3.27;;;24.30;46.00;;;;;;5071920;28;20450;-51
2023/07/18 04:04:48;;;;;;;3.87;2.90;;;24.40;45.90;;;;;;5072529;28;20194;-52
2023/07/18 04:07:13;;;;;;;3.33;3.00;;;24.40;45.90;;;;;;5067891;28;20203;-48
2023/07/18 04:09:39;;;;;;;4.53;3.17;;;24.50;46.20;;;;;;5070809;28;20203;-49
2023/07/18 04:12:05;;;;;;;3.37;3.07;;;24.50;45.70;;;;;;5076086;28;20214;-49
2023/07/18 04:14:31;;;;;;;4.23;3.30;;;24.50;45.80;;;;;;5075237;28;20222;-48
2023/07/18 04:16:57;;;;;;;5.73;2.63;;;24.60;46.30;;;;;;5081674;28;20838;-48
2023/07/18 04:19:22;;;;;;;4.40;2.87;;;24.60;46.20;;;;;;5082076;28;20285;-51
2023/07/18 04:21:48;;;;;;;3.67;3.20;;;24.60;45.70;;;;;;5079788;28;20229;-51
2023/07/18 04:24:13;;;;;;;3.07;2.50;;;24.50;46.30;;;;;;5077944;28;20199;-51
2023/07/18 04:26:39;;;;;;;5.13;3.17;;;24.50;45.80;;;;;;5073778;28;20195;-52
2023/07/18 04:29:05;;;;;;;4.30;2.60;;;24.60;46.00;;;;;;5072470;28;20202;-53
2023/07/18 04:31:31;;;;;;;3.60;2.77;;;24.60;46.20;;;;;;5065899;28;20202;-51
2023/07/18 04:33:56;;;;;;;4.20;3.23;;;24.40;46.40;;;;;;5073882;28;20434;-50
2023/07/18 04:36:22;;;;;;;3.70;3.27;;;23.80;47.00;;;;;;5072548;28;20242;-52
2023/07/18 04:38:48;;;;;;;4.70;3.10;;;23.70;48.10;;;;;;5065910;28;20189;-52
2023/07/18 04:41:13;;;;;;;3.90;3.10;;;23.90;47.90;;;;;;5071420;28;20215;-51
2023/07/18 04:43:39;;;;;;;4.87;2.87;;;24.10;47.40;;;;;;5069094;28;20227;-52
2023/07/18 04:46:05;;;;;;;3.43;2.90;;;24.30;47.10;;;;;;5075450;28;20647;-51
2023/07/18 04:48:30;;;;;;;9.43;3.27;;;24.30;46.80;;;;;;5065029;28;20611;-51
2023/07/18 04:51:00;;;;;;;5.27;3.87;;;24.10;46.80;;;;;;5067240;28;20191;-52
2023/07/18 04:53:30;;;;;;;3.43;3.13;;;24.10;47.20;;;;;;5069899;28;21543;-49
2023/07/18 04:55:56;;;;;;;6.60;3.67;;;24.10;47.30;;;;;;5076306;28;20446;-51
2023/07/18 04:58:26;;;;;;;4.97;3.17;;;24.30;47.70;;;;;;5073942;28;20505;-52
2023/07/18 05:00:54;;;;;;;3.50;3.20;;;24.40;46.80;;;;;;5067360;28;20482;-51
2023/07/18 05:03:21;;;;;;;5.10;2.90;;;24.40;46.50;;;;;;5069727;28;20853;-53
2023/07/18 05:05:46;;;;;;;4.83;3.17;;;24.40;47.00;;;;;;5067336;28;20501;-51
2023/07/18 05:08:12;;;;;;;6.00;3.77;;;24.40;46.70;;;;;;5079013;28;20474;-51
2023/07/18 05:10:39;;;;;;;5.23;3.20;;;24.10;47.00;;;;;;5078276;28;20842;-48
2023/07/18 05:13:04;;;;;;;4.90;3.83;;;23.90;47.00;;;;;;5066474;28;20710;-52
2023/07/18 05:15:30;;;;;;;5.03;4.03;;;23.80;47.30;;;;;;5081438;28;20476;-50
2023/07/18 05:17:55;;;;;;;14.07;3.90;;;23.50;48.30;;;;;;5070340;28;20272;-52
2023/07/18 05:20:21;;;;;;;5.17;3.17;;;23.70;48.00;;;;;;5065440;28;20219;-51
2023/07/18 05:22:48;;;;;;;5.90;3.40;;;23.90;47.80;;;;;;5071013;28;20252;-48
2023/07/18 05:25:14;;;;;;;3.27;2.97;;;23.90;47.60;;;;;;5085501;28;20441;-48
2023/07/18 05:27:41;;;;;;;3.33;3.03;;;23.90;47.50;;;;;;5054939;28;20202;-53
2023/07/18 05:30:16;;;;;;;3.60;3.13;;;24.20;47.30;;;;;;5067262;28;20925;-48
2023/07/18 05:32:42;;;;;;;6.53;3.33;;;24.30;47.10;;;;;;5064649;28;20888;-52
2023/07/18 05:35:11;;;;;;;3.70;3.00;;;24.40;46.80;;;;;;5069182;28;20438;-50
2023/07/18 05:37:38;;;;;;;4.27;3.70;;;24.30;46.50;;;;;;5076853;28;20443;-50
2023/07/18 05:40:04;;;;;;;3.23;2.80;;;24.30;46.70;;;;;;5075274;28;20450;-51
2023/07/18 05:42:30;;;;;;;3.43;2.87;;;24.10;47.30;;;;;;5077849;28;20449;-51
2023/07/18 05:44:56;;;;;;;5.43;3.40;;;24.20;47.30;;;;;;5074876;28;20434;-50
2023/07/18 05:47:21;;;;;;;3.13;2.83;;;24.10;46.90;;;;;;5076374;28;20472;-51
2023/07/18 05:49:47;;;;;;;6.03;3.60;;;23.80;47.80;;;;;;5081179;28;20191;-51
2023/07/18 05:52:12;;;;;;;6.97;3.43;;;24.00;47.90;;;;;;5073682;28;20273;-52
2023/07/18 05:54:38;;;;;;;3.87;2.90;;;24.10;47.30;;;;;;5081192;28;20204;-49
2023/07/18 05:57:04;;;;;;;7.30;3.73;;;24.20;47.40;;;;;;5087775;28;20188;-49
2023/07/18 05:59:30;;;;;;;3.00;2.80;;;24.20;47.30;;;;;;5075221;28;20199;-52
2023/07/18 06:01:56;;;;;;;3.53;3.07;;;24.00;47.40;;;;;;5075509;28;20314;-53
2023/07/18 06:04:21;;;;;;;4.63;3.40;;;23.80;48.20;;;;;;5078055;28;20534;-51
2023/07/18 06:06:47;;;;;;;6.57;3.33;;;23.80;48.20;;;;;;5079969;28;20198;-54
2023/07/18 06:09:13;;;;;;;8.67;3.57;;;23.80;48.20;;;;;;5062787;28;20195;-48
2023/07/18 06:11:38;;;;;;;3.57;3.10;;;24.00;47.80;;;;;;5065325;28;20267;-47
2023/07/18 06:14:07;;;;;;;4.23;3.47;;;24.00;47.90;;;;;;5066743;28;20314;-50
2023/07/18 06:16:33;;;;;;;7.93;3.57;;;24.20;47.80;;;;;;5065796;28;20192;-50
2023/07/18 06:18:58;;;;;;;3.80;3.50;;;24.50;47.50;;;;;;5065068;28;21029;-48
2023/07/18 06:21:26;;;;;;;4.27;3.33;;;24.70;47.30;;;;;;5071215;28;20256;-46
2023/07/18 06:23:53;;;;;;;6.07;3.30;;;24.80;46.80;;;;;;5069274;28;20203;-47
2023/07/18 06:26:19;;;;;;;7.80;3.17;;;24.90;46.40;;;;;;5058234;28;22688;-50
2023/07/18 06:28:44;;;;;;;5.10;3.43;;;25.00;45.80;;;;;;5071767;28;20485;-45
2023/07/18 06:31:10;;;;;;;5.33;3.37;;;25.20;45.90;;;;;;5080706;28;20188;-46
2023/07/18 06:33:38;;;;;;;10.07;3.77;;;25.20;46.10;;;;;;5071068;28;20530;-45
2023/07/18 06:36:03;;;;;;;5.67;3.40;;;25.00;46.40;;;;;;5073150;28;20199;-45
2023/07/18 06:38:29;;;;;;;10.53;4.90;;;24.90;46.60;;;;;;5068998;28;20442;-45
2023/07/18 06:40:55;;;;;;;4.27;3.23;;;25.10;46.50;;;;;;5072981;28;20251;-45
2023/07/18 06:43:21;;;;;;;9.13;4.03;;;25.20;46.30;;;;;;5068795;28;20195;-49
2023/07/18 06:45:47;;;;;;;6.17;3.40;;;25.40;46.10;;;;;;5072757;28;20245;-46
2023/07/18 06:48:13;;;;;;;4.33;3.20;;;25.60;45.80;;;;;;5069619;28;20670;-46
2023/07/18 06:50:48;;;;;;;5.47;3.60;;;25.70;45.60;;;;;;5072403;28;20441;-49
2023/07/18 06:53:17;;;;;;;5.80;3.20;;;25.90;46.00;;;;;;5072450;28;20453;-46
2023/07/18 06:55:43;;;;;;;12.77;3.70;;;26.10;44.90;;;;;;5072427;28;20948;-46
2023/07/18 06:58:09;;;;;;;7.83;3.70;;;26.20;45.00;;;;;;5070819;28;20431;-47
2023/07/18 07:00:38;;;;;;;3.53;3.23;;;26.20;44.10;;;;;;5061467;28;20243;-46
2023/07/18 07:03:04;;;;;;;4.43;2.90;;;26.30;44.20;;;;;;5071407;28;20180;-47
2023/07/18 07:05:29;;;;;;;4.90;3.00;;;26.30;43.20;;;;;;5070859;28;20479;-47
2023/07/18 07:07:55;;;;;;;8.10;3.63;;;26.50;42.90;;;;;;5072844;28;20659;-46
2023/07/18 07:10:21;;;;;;;4.17;2.77;;;26.40;41.80;;;;;;5069052;28;20207;-45
2023/07/18 07:12:47;;;;;;;3.27;2.87;;;26.30;41.40;;;;;;5070213;28;20231;-48
2023/07/18 07:15:13;;;;;;;5.43;2.60;;;26.50;41.30;;;;;;5072005;28;20200;-47
2023/07/18 07:17:39;;;;;;;4.00;2.53;;;26.60;40.60;;;;;;5064140;28;20776;-46
2023/07/18 07:20:14;;;;;;;2.73;2.00;;;26.60;40.20;;;;;;5068716;28;20211;-48
2023/07/18 07:22:43;;;;;;;6.03;3.07;;;26.40;39.40;;;;;;5070105;28;20421;-46
2023/07/18 07:25:13;;;;;;;5.03;2.13;;;26.50;39.80;;;;;;5070514;28;20769;-51
2023/07/18 07:27:39;;;;;;;2.70;2.07;;;26.30;39.40;;;;;;5072444;28;20479;-47
2023/07/18 07:30:05;;;;;;;4.20;2.20;;;26.40;38.70;;;;;;5069261;28;20442;-46
2023/07/18 07:32:31;;;;;;;2.93;2.40;;;26.70;38.90;;;;;;5071454;28;20756;-48
2023/07/18 07:34:57;;;;;;;3.63;2.67;;;26.70;38.20;;;;;;5067200;28;20434;-45
2023/07/18 07:37:23;;;;;;;4.73;2.30;;;26.70;38.20;;;;;;5072113;28;20238;-45
2023/07/18 07:39:49;;;;;;;7.47;2.30;;;26.70;37.50;;;;;;5069270;28;20467;-46
2023/07/18 07:42:15;;;;;;;4.30;1.73;;;26.80;38.10;;;;;;5081686;28;20231;-47
2023/07/18 07:44:41;;;;;;;4.23;1.93;;;27.10;37.30;;;;;;5059202;28;20191;-48
2023/07/18 07:47:06;;;;;;;4.20;1.97;;;27.10;37.90;;;;;;5066038;28;20453;-47
2023/07/18 07:49:32;;;;;;;2.97;2.10;;;27.50;36.80;;;;;;5075704;28;20187;-48
2023/07/18 07:51:58;;;;;;;6.60;2.20;;;27.60;37.70;;;;;;5071923;28;20280;-46
2023/07/18 07:54:23;;;;;;;3.30;2.30;;;28.00;36.80;;;;;;5080486;28;20245;-46
2023/07/18 07:56:49;;;;;;;3.30;2.57;;;28.40;36.90;;;;;;5069869;28;20187;-46
2023/07/18 07:59:14;;;;;;;2.83;2.20;;;28.60;35.80;;;;;;5069168;28;20195;-46
2023/07/18 08:01:40;;;;;;;7.70;2.10;;;28.80;35.60;;;;;;5062422;28;20215;-46
2023/07/18 08:04:08;;;;;;;2.83;2.10;;;28.90;34.20;;;;;;5070663;28;20663;-45
2023/07/18 08:06:33;;;;;;;3.83;2.20;;;28.80;34.40;;;;;;5060219;28;20625;-50
2023/07/18 08:08:59;;;;;;;7.27;2.50;;;29.00;35.50;;;;;;5061750;28;20481;-46
2023/07/18 08:11:25;;;;;;;3.83;2.30;;;29.20;34.60;;;;;;5061976;28;20567;-51
2023/07/18 08:13:53;;;;;;;3.07;2.10;;;29.40;34.30;;;;;;5066626;28;20227;-46
2023/07/18 08:16:18;;;;;;;3.97;2.30;;;29.70;34.70;;;;;;5065406;28;20278;-48
2023/07/18 08:18:44;;;;;;;2.47;1.93;;;29.60;34.70;;;;;;5067945;28;20529;-49
2023/07/18 08:21:09;;;;;;;4.20;2.60;;;29.90;35.10;;;;;;5070728;28;20219;-46
2023/07/18 08:23:35;;;;;;;4.20;2.47;;;30.20;34.30;;;;;;5070527;28;20224;-45
2023/07/18 08:26:00;;;;;;;7.17;2.90;;;30.40;33.50;;;;;;5063474;28;20214;-45
2023/07/18 08:28:26;;;;;;;4.23;2.20;;;30.40;33.00;;;;;;5070335;28;20279;-51
2023/07/18 08:30:52;;;;;;;2.60;2.40;;;30.00;33.00;;;;;;5070430;28;20202;-46
2023/07/18 08:33:19;;;;;;;3.93;2.60;;;29.90;33.40;;;;;;5071304;28;20187;-48
2023/07/18 08:35:45;;;;;;;5.67;2.97;;;30.10;34.20;;;;;;5069251;28;20287;-45
2023/07/18 08:38:11;;;;;;;5.07;2.30;;;30.40;33.80;;;;;;5070396;28;20549;-46
2023/07/18 08:40:42;;;;;;;3.87;2.43;;;30.70;31.70;;;;;;5070761;28;20338;-46
2023/07/18 08:43:13;;;;;;;2.27;2.07;;;30.90;30.90;;;;;;5065988;28;21129;-46
2023/07/18 08:45:40;;;;;;;1.90;1.80;;;31.20;31.20;;;;;;5070584;28;20441;-46
2023/07/18 08:48:06;;;;;;;2.00;1.90;;;31.30;31.30;;;;;;5060136;28;20439;-46
2023/07/18 08:50:33;;;;;;;2.43;1.97;;;31.50;30.60;;;;;;5064890;28;21488;-47
2023/07/18 08:52:58;;;;;;;3.27;2.30;;;31.70;30.50;;;;;;5066225;28;20191;-46
2023/07/18 08:55:26;;;;;;;2.70;2.07;;;31.90;30.80;;;;;;5054760;28;20445;-47
2023/07/18 08:57:53;;;;;;;5.43;2.07;;;32.00;30.00;;;;;;5076532;28;20203;-45
2023/07/18 09:00:20;;;;;;;3.60;2.80;;;32.20;30.50;;;;;;5082636;28;20851;-45
2023/07/18 09:02:49;;;;;;;2.07;1.93;;;32.20;29.60;;;;;;5075908;28;20572;-46
2023/07/18 09:05:35;;;;;;;5.67;1.90;;;31.90;30.10;;;;;;5073696;28;20438;-47
2023/07/18 09:08:03;;;;;;;3.00;2.43;;;32.10;31.00;;;;;;5062767;28;20456;-45
2023/07/18 09:10:29;;;;;;;4.57;2.73;;;32.30;30.90;;;;;;5066297;28;20442;-46
2023/07/18 09:13:03;;;;;;;2.50;2.30;;;32.50;30.10;;;;;;5079381;28;20483;-45
2023/07/18 09:15:29;;;;;;;4.07;2.20;;;32.60;29.90;;;;;;5073488;28;20794;-47
2023/07/18 09:17:58;;;;;;;4.03;2.10;;;32.70;30.00;;;;;;5068365;28;20430;-46
2023/07/18 09:20:28;;;;;;;4.40;2.30;;;33.00;30.10;;;;;;5075394;28;20469;-47
2023/07/18 09:22:56;;;;;;;2.87;2.60;;;32.80;29.50;;;;;;5067817;28;20524;-48
2023/07/18 09:25:23;;;;;;;2.80;2.00;;;32.90;30.00;;;;;;5069783;28;20539;-47
2023/07/18 09:27:55;;;;;;;3.10;2.27;;;33.20;29.90;;;;;;5060684;28;20422;-45
2023/07/18 09:30:34;;;;;;;3.60;2.30;;;33.20;29.50;;;;;;5072635;28;20479;-48
2023/07/18 09:33:04;;;;;;;3.30;2.40;;;33.40;29.10;;;;;;5069550;28;20431;-47
2023/07/18 09:35:29;;;;;;;3.93;2.20;;;32.80;29.80;;;;;;5071092;28;20450;-48
2023/07/18 09:37:55;;;;;;;3.43;2.60;;;33.20;29.80;;;;;;5067675;28;20454;-46
2023/07/18 09:40:22;;;;;;;3.33;2.53;;;33.10;29.00;;;;;;5073752;28;20196;-49
2023/07/18 09:42:49;;;;;;;2.70;2.27;;;32.80;29.90;;;;;;5074484;28;20450;-47
2023/07/18 09:45:16;;;;;;;5.43;2.80;;;33.20;29.50;;;;;;5072656;28;20834;-48
2023/07/18 09:47:42;;;;;;;3.83;2.60;;;33.30;29.30;;;;;;5067516;28;20441;-48
2023/07/18 09:50:12;;;;;;;3.53;2.27;;;33.60;29.20;;;;;;5071343;28;20982;-45
2023/07/18 09:52:51;;;;;;;5.00;2.53;;;34.00;28.70;;;;;;5070274;28;20916;-48
2023/07/18 09:55:22;;;;;;;3.20;2.60;;;34.20;28.40;;;;;;5074663;28;20815;-48
2023/07/18 09:57:49;;;;;;;4.40;2.50;;;34.20;28.40;;;;;;5073580;28;20480;-48
2023/07/18 10:00:15;;;;;;;2.83;2.53;;;34.20;28.10;;;;;;5086669;28;20433;-48
2023/07/18 10:02:42;;;;;;;3.50;2.70;;;34.20;28.30;;;;;;5085055;28;20531;-49
2023/07/18 10:05:09;;;;;;;3.23;2.47;;;34.50;28.30;;;;;;5063625;28;20446;-49
2023/07/18 10:07:38;;;;;;;6.00;3.10;;;34.60;28.00;;;;;;5073518;28;20444;-49
2023/07/18 10:10:10;;;;;;;6.47;2.57;;;34.50;27.90;;;;;;5080929;28;20458;-49
2023/07/18 10:13:01;;;;;;;3.37;2.67;;;34.20;28.30;;;;;;5080413;28;20473;-48
2023/07/18 10:15:27;;;;;;;3.13;2.83;;;34.30;28.40;;;;;;5076363;28;20453;-47
2023/07/18 10:17:53;;;;;;;4.00;2.80;;;34.40;28.30;;;;;;5073260;28;20442;-49
2023/07/18 10:20:32;;;;;;;3.00;2.60;;;34.50;27.80;;;;;;5063620;28;20487;-51
2023/07/18 10:22:59;;;;;;;3.20;2.63;;;34.50;28.20;;;;;;5073640;28;20203;-48
2023/07/18 10:25:31;;;;;;;4.10;3.20;;;34.40;28.40;;;;;;5073920;28;20437;-48
2023/07/18 10:27:59;;;;;;;4.87;2.90;;;34.40;28.60;;;;;;5070389;28;20447;-48
2023/07/18 10:30:37;;;;;;;3.50;2.77;;;34.30;28.50;;;;;;5071002;28;22622;-49
2023/07/18 10:33:03;;;;;;;3.87;3.10;;;34.30;28.60;;;;;;5070666;28;20450;-48
2023/07/18 10:35:29;;;;;;;3.90;2.22;;;34.30;28.70;;;;;;5066445;28;20426;-48
2023/07/18 10:38:09;;;;;;;3.63;2.63;;;34.10;28.70;;;;;;5070794;28;20468;-48
2023/07/18 10:40:36;;;;;;;3.70;2.60;;;33.90;29.00;;;;;;5072358;28;20234;-47
2023/07/18 10:43:04;;;;;;;2.90;2.70;;;33.70;29.10;;;;;;5068925;28;20446;-48
2023/07/18 10:45:39;;;;;;;5.63;2.97;;;33.30;29.60;;;;;;5084886;28;20429;-48
2023/07/18 10:48:13;;;;;;;3.00;2.80;;;32.80;30.40;;;;;;5070365;28;20449;-47
2023/07/18 10:50:39;;;;;;;3.17;2.60;;;32.60;31.50;;;;;;5067834;28;20528;-51
2023/07/18 10:53:09;;;;;;;3.17;2.73;;;32.60;31.90;;;;;;5080832;28;20446;-51
2023/07/18 10:55:34;;;;;;;3.40;3.03;;;32.80;31.60;;;;;;5071980;28;20445;-51
2023/07/18 10:58:00;;;;;;;4.70;3.00;;;33.00;32.10;;;;;;5074562;28;20934;-52
2023/07/18 11:00:25;;;;;;;2.97;2.70;;;33.20;31.30;;;;;;5067401;28;20191;-52
2023/07/18 11:02:51;;;;;;;6.07;3.73;;;33.30;30.50;;;;;;5071184;28;20723;-52
2023/07/18 11:05:17;;;;;;;3.20;2.90;;;33.30;31.10;;;;;;5068548;28;20278;-49
2023/07/18 11:07:45;;;;;;;3.67;3.37;;;33.40;30.60;;;;;;5079503;28;20230;-53
2023/07/18 11:10:15;;;;;;;4.83;2.30;;;33.50;30.20;;;;;;5079633;28;20183;-49
2023/07/18 11:12:42;;;;;;;4.53;2.93;;;33.60;30.00;;;;;;5080002;28;20557;-51
2023/07/18 11:15:09;;;;;;;3.30;3.00;;;33.60;30.10;;;;;;5066325;28;20807;-53
2023/07/18 11:17:36;;;;;;;4.53;3.00;;;33.60;30.20;;;;;;5066484;28;20527;-47
2023/07/18 11:20:03;;;;;;;3.33;3.03;;;33.30;30.50;;;;;;5070897;28;20446;-47
2023/07/18 11:22:31;;;;;;;3.40;3.03;;;33.20;30.40;;;;;;5072581;28;20504;-48
2023/07/18 11:24:57;;;;;;;4.87;3.00;;;33.10;30.90;;;;;;5068286;28;20458;-51
2023/07/18 11:27:25;;;;;;;9.47;3.33;;;33.10;31.10;;;;;;5080619;28;20433;-52
2023/07/18 11:29:55;;;;;;;3.13;2.83;;;33.00;31.20;;;;;;5081654;28;20538;-53
2023/07/18 11:32:40;;;;;;;5.40;3.10;;;32.90;30.60;;;;;;5073993;28;20457;-52
2023/07/18 11:35:10;;;;;;;5.93;3.13;;;33.00;30.40;;;;;;5069830;28;20446;-51
2023/07/18 11:37:41;;;;;;;5.73;3.50;;;32.70;30.90;;;;;;5079023;28;21090;-51
2023/07/18 11:40:07;;;;;;;6.63;3.37;;;32.40;31.40;;;;;;5073090;28;20435;-50
2023/07/18 11:42:44;;;;;;;15.23;3.93;;;32.30;31.50;;;;;;5072084;28;20481;-52
2023/07/18 11:45:10;;;;;;;4.80;3.60;;;32.30;31.60;;;;;;5076461;28;20815;-50
2023/07/18 11:47:37;;;;;;;4.47;4.07;;;32.40;31.60;;;;;;5071099;28;20537;-49
2023/07/18 11:50:09;;;;;;;5.23;3.70;;;32.20;31.70;;;;;;5062931;28;20497;-49
2023/07/18 11:52:35;;;;;;;4.83;3.30;;;32.00;32.10;;;;;;5065526;28;20942;-49
2023/07/18 11:55:00;;;;;;;4.60;3.43;;;32.00;32.30;;;;;;5058678;28;20508;-48
2023/07/18 11:57:26;;;;;;;4.93;3.40;;;31.90;32.90;;;;;;5062610;28;20242;-50
2023/07/18 11:59:52;;;;;;;6.43;3.70;;;32.00;33.10;;;;;;5061143;28;20199;-48
2023/07/18 12:02:19;;;;;;;5.97;3.40;;;32.00;32.90;;;;;;5069993;28;20565;-47
2023/07/18 12:04:45;;;;;;;5.70;3.67;;;32.00;32.70;;;;;;5061865;28;20794;-50
2023/07/18 12:07:10;;;;;;;5.33;3.83;;;32.00;32.80;;;;;;5065590;28;20453;-49
2023/07/18 12:09:36;;;;;;;6.33;3.00;;;32.00;32.70;;;;;;5063416;28;20200;-50
2023/07/18 12:12:02;;;;;;;4.43;3.60;;;31.90;32.90;;;;;;5069309;28;20222;-51
2023/07/18 12:14:27;;;;;;;7.10;3.40;;;31.70;33.10;;;;;;5075124;28;20656;-50
2023/07/18 12:16:53;;;;;;;6.23;4.43;;;31.40;33.50;;;;;;5075089;28;20773;-47
2023/07/18 12:19:21;;;;;;;3.97;3.57;;;31.40;33.70;;;;;;5064356;28;20196;-51
2023/07/18 12:21:48;;;;;;;4.20;3.57;;;31.20;34.60;;;;;;5061792;28;20236;-51
2023/07/18 12:24:14;;;;;;;4.17;3.50;;;31.20;34.30;;;;;;5060828;28;21174;-47
2023/07/18 12:26:39;;;;;;;4.70;3.47;;;31.00;34.30;;;;;;5070325;28;20491;-50
2023/07/18 12:29:05;;;;;;;4.80;3.20;;;30.90;35.20;;;;;;5072674;28;20196;-49
2023/07/18 12:31:33;;;;;;;3.73;3.43;;;30.90;35.00;;;;;;5069139;28;20831;-48
2023/07/18 12:33:59;;;;;;;4.37;3.10;;;31.10;34.40;;;;;;5060385;28;20232;-51
2023/07/18 12:36:25;;;;;;;5.60;3.30;;;31.10;34.60;;;;;;5053793;28;20759;-46
2023/07/18 12:38:50;;;;;;;4.30;3.90;;;31.30;35.40;;;;;;5052361;28;20228;-51
2023/07/18 12:41:16;;;;;;;4.70;3.27;;;31.30;35.10;;;;;;5079355;28;20269;-46
2023/07/18 12:43:42;;;;;;;4.40;3.33;;;31.40;35.10;;;;;;5063300;28;20203;-51